sensor_id;sensor_type;location;lat;lon;timestamp;P1;durP1;ratioP1;P2;durP2;ratioP2
62673;SDS011;62269;47.594;17.638;2022-12-10T00:00:46;13.30;;;11.90;;
62673;SDS011;62269;47.594;17.638;2022-12-10T00:01:34;13.98;;;12.15;;
62673;SDS011;62269;47.594;17.638;2022-12-10T00:02:21;12.00;;;10.80;;
62673;SDS011;62269;47.594;17.638;2022-12-10T00:03:08;13.75;;;11.98;;
62673;SDS011;62269;47.594;17.638;2022-12-10T00:03:55;14.65;;;12.13;;
62673;SDS011;62269;47.594;17.638;2022-12-10T00:04:42;13.30;;;11.60;;
62673;SDS011;62269;47.594;17.638;2022-12-10T00:05:34;14.15;;;11.32;;
62673;SDS011;62269;47.594;17.638;2022-12-10T00:06:22;12.85;;;11.43;;
62673;SDS011;62269;47.594;17.638;2022-12-10T00:07:11;13.20;;;11.80;;
62673;SDS011;62269;47.594;17.638;2022-12-10T00:07:57;13.93;;;11.45;;
62673;SDS011;62269;47.594;17.638;2022-12-10T00:08:44;14.10;;;11.98;;
62673;SDS011;62269;47.594;17.638;2022-12-10T00:09:31;13.40;;;11.68;;
62673;SDS011;62269;47.594;17.638;2022-12-10T00:10:19;14.13;;;12.50;;
62673;SDS011;62269;47.594;17.638;2022-12-10T00:11:06;15.18;;;12.65;;
62673;SDS011;62269;47.594;17.638;2022-12-10T00:11:54;14.20;;;12.70;;
62673;SDS011;62269;47.594;17.638;2022-12-10T00:12:41;14.10;;;12.00;;
62673;SDS011;62269;47.594;17.638;2022-12-10T00:13:28;14.13;;;12.52;;
62673;SDS011;62269;47.594;17.638;2022-12-10T00:14:15;14.05;;;12.55;;
62673;SDS011;62269;47.594;17.638;2022-12-10T00:15:02;14.38;;;12.23;;
62673;SDS011;62269;47.594;17.638;2022-12-10T00:15:49;16.15;;;12.90;;
62673;SDS011;62269;47.594;17.638;2022-12-10T00:16:36;15.48;;;13.25;;
62673;SDS011;62269;47.594;17.638;2022-12-10T00:17:23;14.95;;;12.52;;
62673;SDS011;62269;47.594;17.638;2022-12-10T00:18:10;16.87;;;13.77;;
62673;SDS011;62269;47.594;17.638;2022-12-10T00:18:57;13.27;;;11.88;;
62673;SDS011;62269;47.594;17.638;2022-12-10T00:19:44;15.50;;;13.85;;
62673;SDS011;62269;47.594;17.638;2022-12-10T00:20:31;15.93;;;13.50;;
62673;SDS011;62269;47.594;17.638;2022-12-10T00:21:19;14.35;;;12.75;;
62673;SDS011;62269;47.594;17.638;2022-12-10T00:22:08;15.63;;;13.32;;
62673;SDS011;62269;47.594;17.638;2022-12-10T00:22:55;16.80;;;13.50;;
62673;SDS011;62269;47.594;17.638;2022-12-10T00:23:42;15.13;;;13.52;;
62673;SDS011;62269;47.594;17.638;2022-12-10T00:24:29;16.95;;;13.75;;
62673;SDS011;62269;47.594;17.638;2022-12-10T00:25:16;15.05;;;13.38;;
62673;SDS011;62269;47.594;17.638;2022-12-10T00:26:10;15.40;;;13.75;;
62673;SDS011;62269;47.594;17.638;2022-12-10T00:26:59;15.85;;;14.05;;
62673;SDS011;62269;47.594;17.638;2022-12-10T00:27:46;15.48;;;13.82;;
62673;SDS011;62269;47.594;17.638;2022-12-10T00:28:33;15.27;;;13.68;;
62673;SDS011;62269;47.594;17.638;2022-12-10T00:29:20;16.98;;;15.07;;
62673;SDS011;62269;47.594;17.638;2022-12-10T00:30:07;15.95;;;14.18;;
62673;SDS011;62269;47.594;17.638;2022-12-10T00:30:54;15.70;;;13.65;;
62673;SDS011;62269;47.594;17.638;2022-12-10T00:31:41;17.10;;;14.65;;
62673;SDS011;62269;47.594;17.638;2022-12-10T00:32:28;17.08;;;13.93;;
62673;SDS011;62269;47.594;17.638;2022-12-10T00:33:15;15.57;;;13.95;;
62673;SDS011;62269;47.594;17.638;2022-12-10T00:34:03;16.95;;;15.02;;
62673;SDS011;62269;47.594;17.638;2022-12-10T00:34:51;17.17;;;14.87;;
62673;SDS011;62269;47.594;17.638;2022-12-10T00:35:38;19.50;;;16.12;;
62673;SDS011;62269;47.594;17.638;2022-12-10T00:36:30;17.62;;;15.30;;
62673;SDS011;62269;47.594;17.638;2022-12-10T00:37:18;18.35;;;14.45;;
62673;SDS011;62269;47.594;17.638;2022-12-10T00:38:05;17.62;;;15.05;;
62673;SDS011;62269;47.594;17.638;2022-12-10T00:38:52;19.15;;;16.20;;
62673;SDS011;62269;47.594;17.638;2022-12-10T00:39:39;17.05;;;15.20;;
62673;SDS011;62269;47.594;17.638;2022-12-10T00:40:25;18.65;;;14.95;;
62673;SDS011;62269;47.594;17.638;2022-12-10T00:41:12;19.95;;;16.48;;
62673;SDS011;62269;47.594;17.638;2022-12-10T00:42:00;22.60;;;17.92;;
62673;SDS011;62269;47.594;17.638;2022-12-10T00:42:47;18.67;;;15.70;;
62673;SDS011;62269;47.594;17.638;2022-12-10T00:43:34;21.15;;;17.25;;
62673;SDS011;62269;47.594;17.638;2022-12-10T00:44:21;23.98;;;17.20;;
62673;SDS011;62269;47.594;17.638;2022-12-10T00:45:08;23.98;;;16.05;;
62673;SDS011;62269;47.594;17.638;2022-12-10T00:45:55;21.95;;;17.15;;
62673;SDS011;62269;47.594;17.638;2022-12-10T00:46:42;22.13;;;16.90;;
62673;SDS011;62269;47.594;17.638;2022-12-10T00:47:29;21.50;;;16.73;;
62673;SDS011;62269;47.594;17.638;2022-12-10T00:48:16;22.15;;;17.62;;
62673;SDS011;62269;47.594;17.638;2022-12-10T00:49:03;21.90;;;17.62;;
62673;SDS011;62269;47.594;17.638;2022-12-10T00:49:50;22.10;;;17.80;;
62673;SDS011;62269;47.594;17.638;2022-12-10T00:50:37;21.90;;;17.85;;
62673;SDS011;62269;47.594;17.638;2022-12-10T00:51:24;27.40;;;18.52;;
62673;SDS011;62269;47.594;17.638;2022-12-10T00:52:12;21.20;;;17.77;;
62673;SDS011;62269;47.594;17.638;2022-12-10T00:52:59;21.80;;;17.60;;
62673;SDS011;62269;47.594;17.638;2022-12-10T00:53:46;24.65;;;17.42;;
62673;SDS011;62269;47.594;17.638;2022-12-10T00:54:34;21.77;;;17.40;;
62673;SDS011;62269;47.594;17.638;2022-12-10T00:55:21;23.05;;;18.40;;
62673;SDS011;62269;47.594;17.638;2022-12-10T00:56:08;22.90;;;18.15;;
62673;SDS011;62269;47.594;17.638;2022-12-10T00:56:56;20.98;;;17.90;;
62673;SDS011;62269;47.594;17.638;2022-12-10T00:57:43;22.92;;;18.73;;
62673;SDS011;62269;47.594;17.638;2022-12-10T00:58:31;22.83;;;17.30;;
62673;SDS011;62269;47.594;17.638;2022-12-10T00:59:19;25.55;;;18.30;;
62673;SDS011;62269;47.594;17.638;2022-12-10T01:00:06;21.67;;;18.35;;
62673;SDS011;62269;47.594;17.638;2022-12-10T01:00:54;23.52;;;17.65;;
62673;SDS011;62269;47.594;17.638;2022-12-10T01:01:41;22.65;;;17.92;;
62673;SDS011;62269;47.594;17.638;2022-12-10T01:02:29;23.02;;;18.05;;
62673;SDS011;62269;47.594;17.638;2022-12-10T01:03:16;21.40;;;17.30;;
62673;SDS011;62269;47.594;17.638;2022-12-10T01:04:04;20.92;;;17.58;;
62673;SDS011;62269;47.594;17.638;2022-12-10T01:04:58;21.95;;;17.58;;
62673;SDS011;62269;47.594;17.638;2022-12-10T01:05:45;25.27;;;18.25;;
62673;SDS011;62269;47.594;17.638;2022-12-10T01:06:33;20.75;;;17.83;;
62673;SDS011;62269;47.594;17.638;2022-12-10T01:07:22;22.13;;;18.25;;
62673;SDS011;62269;47.594;17.638;2022-12-10T01:08:09;23.42;;;17.40;;
62673;SDS011;62269;47.594;17.638;2022-12-10T01:08:56;20.88;;;16.70;;
62673;SDS011;62269;47.594;17.638;2022-12-10T01:09:45;24.37;;;17.77;;
62673;SDS011;62269;47.594;17.638;2022-12-10T01:10:32;24.85;;;17.50;;
62673;SDS011;62269;47.594;17.638;2022-12-10T01:11:19;25.80;;;17.08;;
62673;SDS011;62269;47.594;17.638;2022-12-10T01:12:07;20.70;;;16.50;;
62673;SDS011;62269;47.594;17.638;2022-12-10T01:12:54;21.40;;;16.85;;
62673;SDS011;62269;47.594;17.638;2022-12-10T01:13:41;20.65;;;15.93;;
62673;SDS011;62269;47.594;17.638;2022-12-10T01:14:29;22.27;;;15.18;;
62673;SDS011;62269;47.594;17.638;2022-12-10T01:15:17;20.27;;;16.02;;
62673;SDS011;62269;47.594;17.638;2022-12-10T01:16:05;20.10;;;16.20;;
62673;SDS011;62269;47.594;17.638;2022-12-10T01:16:54;20.55;;;15.40;;
62673;SDS011;62269;47.594;17.638;2022-12-10T01:17:42;23.40;;;16.37;;
62673;SDS011;62269;47.594;17.638;2022-12-10T01:18:29;19.70;;;15.68;;
62673;SDS011;62269;47.594;17.638;2022-12-10T01:19:16;24.45;;;16.42;;
62673;SDS011;62269;47.594;17.638;2022-12-10T01:20:03;20.48;;;15.95;;
62673;SDS011;62269;47.594;17.638;2022-12-10T01:20:50;22.42;;;16.25;;
62673;SDS011;62269;47.594;17.638;2022-12-10T01:21:37;21.23;;;16.23;;
62673;SDS011;62269;47.594;17.638;2022-12-10T01:22:24;23.10;;;16.98;;
62673;SDS011;62269;47.594;17.638;2022-12-10T01:23:11;22.58;;;17.40;;
62673;SDS011;62269;47.594;17.638;2022-12-10T01:23:58;20.58;;;15.95;;
62673;SDS011;62269;47.594;17.638;2022-12-10T01:24:45;21.30;;;16.90;;
62673;SDS011;62269;47.594;17.638;2022-12-10T01:25:32;23.40;;;16.73;;
62673;SDS011;62269;47.594;17.638;2022-12-10T01:26:23;19.70;;;15.95;;
62673;SDS011;62269;47.594;17.638;2022-12-10T01:27:11;21.83;;;16.92;;
62673;SDS011;62269;47.594;17.638;2022-12-10T01:27:58;20.98;;;17.02;;
62673;SDS011;62269;47.594;17.638;2022-12-10T01:28:45;23.52;;;16.80;;
62673;SDS011;62269;47.594;17.638;2022-12-10T01:29:32;25.62;;;16.85;;
62673;SDS011;62269;47.594;17.638;2022-12-10T01:30:19;21.70;;;16.67;;
62673;SDS011;62269;47.594;17.638;2022-12-10T01:31:39;22.92;;;17.30;;
62673;SDS011;62269;47.594;17.638;2022-12-10T01:32:22;22.83;;;16.65;;
62673;SDS011;62269;47.594;17.638;2022-12-10T01:33:09;21.98;;;16.50;;
62673;SDS011;62269;47.594;17.638;2022-12-10T01:33:56;21.37;;;17.10;;
62673;SDS011;62269;47.594;17.638;2022-12-10T01:35:35;20.02;;;15.73;;
62673;SDS011;62269;47.594;17.638;2022-12-10T01:36:25;22.15;;;15.95;;
62673;SDS011;62269;47.594;17.638;2022-12-10T01:37:16;20.52;;;16.98;;
62673;SDS011;62269;47.594;17.638;2022-12-10T01:38:03;20.67;;;16.37;;
62673;SDS011;62269;47.594;17.638;2022-12-10T01:38:50;20.25;;;17.08;;
62673;SDS011;62269;47.594;17.638;2022-12-10T01:39:38;20.60;;;16.87;;
62673;SDS011;62269;47.594;17.638;2022-12-10T01:40:25;23.83;;;18.17;;
62673;SDS011;62269;47.594;17.638;2022-12-10T01:41:17;21.33;;;17.35;;
62673;SDS011;62269;47.594;17.638;2022-12-10T01:42:11;20.40;;;16.85;;
62673;SDS011;62269;47.594;17.638;2022-12-10T01:42:59;22.02;;;18.35;;
62673;SDS011;62269;47.594;17.638;2022-12-10T01:43:54;23.05;;;18.27;;
62673;SDS011;62269;47.594;17.638;2022-12-10T01:45:35;23.70;;;18.58;;
62673;SDS011;62269;47.594;17.638;2022-12-10T01:46:32;22.25;;;18.27;;
62673;SDS011;62269;47.594;17.638;2022-12-10T01:47:20;21.48;;;17.00;;
62673;SDS011;62269;47.594;17.638;2022-12-10T01:48:07;22.50;;;18.05;;
62673;SDS011;62269;47.594;17.638;2022-12-10T01:48:54;21.05;;;17.85;;
62673;SDS011;62269;47.594;17.638;2022-12-10T01:49:42;22.02;;;18.35;;
62673;SDS011;62269;47.594;17.638;2022-12-10T01:50:29;23.20;;;18.75;;
62673;SDS011;62269;47.594;17.638;2022-12-10T01:51:16;20.77;;;17.40;;
62673;SDS011;62269;47.594;17.638;2022-12-10T01:52:04;22.10;;;18.17;;
62673;SDS011;62269;47.594;17.638;2022-12-10T01:52:52;22.70;;;18.62;;
62673;SDS011;62269;47.594;17.638;2022-12-10T01:53:39;21.52;;;17.12;;
62673;SDS011;62269;47.594;17.638;2022-12-10T01:54:28;20.92;;;16.75;;
62673;SDS011;62269;47.594;17.638;2022-12-10T01:55:37;22.42;;;17.33;;
62673;SDS011;62269;47.594;17.638;2022-12-10T01:56:36;20.88;;;17.25;;
62673;SDS011;62269;47.594;17.638;2022-12-10T01:57:25;20.62;;;17.35;;
62673;SDS011;62269;47.594;17.638;2022-12-10T01:58:14;22.50;;;17.67;;
62673;SDS011;62269;47.594;17.638;2022-12-10T01:59:02;20.33;;;18.08;;
62673;SDS011;62269;47.594;17.638;2022-12-10T01:59:51;20.23;;;17.98;;
62673;SDS011;62269;47.594;17.638;2022-12-10T02:00:43;21.92;;;17.92;;
62673;SDS011;62269;47.594;17.638;2022-12-10T02:01:39;21.62;;;18.75;;
62673;SDS011;62269;47.594;17.638;2022-12-10T02:02:52;20.23;;;17.50;;
62673;SDS011;62269;47.594;17.638;2022-12-10T02:06:11;20.95;;;18.17;;
62673;SDS011;62269;47.594;17.638;2022-12-10T02:09:34;21.70;;;16.58;;
62673;SDS011;62269;47.594;17.638;2022-12-10T02:11:25;18.67;;;16.40;;
62673;SDS011;62269;47.594;17.638;2022-12-10T02:15:17;19.48;;;16.95;;
62673;SDS011;62269;47.594;17.638;2022-12-10T02:16:08;20.25;;;17.05;;
62673;SDS011;62269;47.594;17.638;2022-12-10T02:16:59;20.60;;;17.50;;
62673;SDS011;62269;47.594;17.638;2022-12-10T02:18:05;21.83;;;17.70;;
62673;SDS011;62269;47.594;17.638;2022-12-10T02:19:50;18.65;;;15.98;;
62673;SDS011;62269;47.594;17.638;2022-12-10T02:20:43;21.17;;;17.17;;
62673;SDS011;62269;47.594;17.638;2022-12-10T02:21:34;21.50;;;17.87;;
62673;SDS011;62269;47.594;17.638;2022-12-10T02:22:24;20.30;;;17.90;;
62673;SDS011;62269;47.594;17.638;2022-12-10T02:23:14;21.92;;;17.70;;
62673;SDS011;62269;47.594;17.638;2022-12-10T02:24:10;22.85;;;18.60;;
62673;SDS011;62269;47.594;17.638;2022-12-10T02:24:58;23.17;;;19.42;;
62673;SDS011;62269;47.594;17.638;2022-12-10T02:27:03;21.98;;;19.00;;
62673;SDS011;62269;47.594;17.638;2022-12-10T02:29:36;22.83;;;18.02;;
62673;SDS011;62269;47.594;17.638;2022-12-10T02:30:23;21.80;;;19.12;;
62673;SDS011;62269;47.594;17.638;2022-12-10T02:31:10;24.35;;;19.45;;
62673;SDS011;62269;47.594;17.638;2022-12-10T02:32:52;22.67;;;18.30;;
62673;SDS011;62269;47.594;17.638;2022-12-10T02:33:40;25.95;;;19.48;;
62673;SDS011;62269;47.594;17.638;2022-12-10T02:34:42;22.10;;;18.25;;
62673;SDS011;62269;47.594;17.638;2022-12-10T02:35:30;22.02;;;18.33;;
62673;SDS011;62269;47.594;17.638;2022-12-10T02:36:18;23.90;;;18.67;;
62673;SDS011;62269;47.594;17.638;2022-12-10T02:37:08;23.92;;;20.08;;
62673;SDS011;62269;47.594;17.638;2022-12-10T02:38:09;23.65;;;19.33;;
62673;SDS011;62269;47.594;17.638;2022-12-10T02:38:59;21.48;;;18.42;;
62673;SDS011;62269;47.594;17.638;2022-12-10T02:39:48;24.48;;;20.05;;
62673;SDS011;62269;47.594;17.638;2022-12-10T02:40:36;22.73;;;19.40;;
62673;SDS011;62269;47.594;17.638;2022-12-10T02:41:28;24.50;;;20.00;;
62673;SDS011;62269;47.594;17.638;2022-12-10T02:42:26;26.58;;;19.85;;
62673;SDS011;62269;47.594;17.638;2022-12-10T02:43:15;23.85;;;18.92;;
62673;SDS011;62269;47.594;17.638;2022-12-10T02:44:03;24.23;;;20.40;;
62673;SDS011;62269;47.594;17.638;2022-12-10T02:44:52;23.12;;;18.80;;
62673;SDS011;62269;47.594;17.638;2022-12-10T02:45:39;24.77;;;20.20;;
62673;SDS011;62269;47.594;17.638;2022-12-10T02:46:28;25.10;;;20.40;;
62673;SDS011;62269;47.594;17.638;2022-12-10T02:47:16;25.67;;;20.40;;
62673;SDS011;62269;47.594;17.638;2022-12-10T02:48:03;27.27;;;20.70;;
62673;SDS011;62269;47.594;17.638;2022-12-10T02:48:50;25.55;;;20.58;;
62673;SDS011;62269;47.594;17.638;2022-12-10T02:49:38;25.60;;;20.83;;
62673;SDS011;62269;47.594;17.638;2022-12-10T02:50:26;27.33;;;22.25;;
62673;SDS011;62269;47.594;17.638;2022-12-10T02:51:13;26.55;;;21.05;;
62673;SDS011;62269;47.594;17.638;2022-12-10T02:52:06;25.62;;;21.17;;
62673;SDS011;62269;47.594;17.638;2022-12-10T02:52:54;26.55;;;21.42;;
62673;SDS011;62269;47.594;17.638;2022-12-10T02:53:42;29.30;;;22.37;;
62673;SDS011;62269;47.594;17.638;2022-12-10T02:54:37;29.40;;;22.77;;
62673;SDS011;62269;47.594;17.638;2022-12-10T02:55:29;27.77;;;22.48;;
62673;SDS011;62269;47.594;17.638;2022-12-10T02:56:30;29.75;;;23.08;;
62673;SDS011;62269;47.594;17.638;2022-12-10T03:00:14;29.87;;;23.08;;
62673;SDS011;62269;47.594;17.638;2022-12-10T03:01:39;26.65;;;20.85;;
62673;SDS011;62269;47.594;17.638;2022-12-10T03:03:09;26.80;;;21.30;;
62673;SDS011;62269;47.594;17.638;2022-12-10T03:03:34;26.65;;;21.50;;
62673;SDS011;62269;47.594;17.638;2022-12-10T03:05:36;27.52;;;21.73;;
62673;SDS011;62269;47.594;17.638;2022-12-10T03:06:39;26.85;;;21.35;;
62673;SDS011;62269;47.594;17.638;2022-12-10T03:07:53;27.35;;;22.05;;
62673;SDS011;62269;47.594;17.638;2022-12-10T03:08:52;27.60;;;22.55;;
62673;SDS011;62269;47.594;17.638;2022-12-10T03:09:47;28.17;;;22.60;;
62673;SDS011;62269;47.594;17.638;2022-12-10T03:11:49;26.40;;;20.77;;
62673;SDS011;62269;47.594;17.638;2022-12-10T03:12:47;27.05;;;21.92;;
62673;SDS011;62269;47.594;17.638;2022-12-10T03:13:36;31.17;;;23.65;;
62673;SDS011;62269;47.594;17.638;2022-12-10T03:14:29;28.90;;;22.58;;
62673;SDS011;62269;47.594;17.638;2022-12-10T03:16:04;28.30;;;22.40;;
62673;SDS011;62269;47.594;17.638;2022-12-10T03:16:56;31.67;;;24.08;;
62673;SDS011;62269;47.594;17.638;2022-12-10T03:17:44;27.90;;;23.17;;
62673;SDS011;62269;47.594;17.638;2022-12-10T03:18:34;29.73;;;22.95;;
62673;SDS011;62269;47.594;17.638;2022-12-10T03:19:22;29.60;;;22.85;;
62673;SDS011;62269;47.594;17.638;2022-12-10T03:20:14;28.98;;;22.85;;
62673;SDS011;62269;47.594;17.638;2022-12-10T03:21:03;29.10;;;23.85;;
62673;SDS011;62269;47.594;17.638;2022-12-10T03:21:51;31.60;;;24.20;;
62673;SDS011;62269;47.594;17.638;2022-12-10T03:22:39;31.00;;;24.63;;
62673;SDS011;62269;47.594;17.638;2022-12-10T03:23:28;30.90;;;24.48;;
62673;SDS011;62269;47.594;17.638;2022-12-10T03:24:16;28.83;;;23.52;;
62673;SDS011;62269;47.594;17.638;2022-12-10T03:25:03;31.12;;;25.45;;
62673;SDS011;62269;47.594;17.638;2022-12-10T03:25:51;32.92;;;25.80;;
62673;SDS011;62269;47.594;17.638;2022-12-10T03:26:38;31.00;;;24.33;;
62673;SDS011;62269;47.594;17.638;2022-12-10T03:27:26;31.37;;;25.15;;
62673;SDS011;62269;47.594;17.638;2022-12-10T03:28:14;30.35;;;23.38;;
62673;SDS011;62269;47.594;17.638;2022-12-10T03:29:05;33.25;;;25.77;;
62673;SDS011;62269;47.594;17.638;2022-12-10T03:30:41;32.25;;;23.73;;
62673;SDS011;62269;47.594;17.638;2022-12-10T03:31:29;33.70;;;24.10;;
62673;SDS011;62269;47.594;17.638;2022-12-10T03:32:17;32.80;;;26.73;;
62673;SDS011;62269;47.594;17.638;2022-12-10T03:33:04;31.20;;;24.85;;
62673;SDS011;62269;47.594;17.638;2022-12-10T03:33:52;30.50;;;24.65;;
62673;SDS011;62269;47.594;17.638;2022-12-10T03:34:41;32.28;;;24.85;;
62673;SDS011;62269;47.594;17.638;2022-12-10T03:35:29;33.20;;;26.60;;
62673;SDS011;62269;47.594;17.638;2022-12-10T03:36:17;32.28;;;26.55;;
62673;SDS011;62269;47.594;17.638;2022-12-10T03:37:05;33.45;;;27.17;;
62673;SDS011;62269;47.594;17.638;2022-12-10T03:37:52;35.95;;;26.98;;
62673;SDS011;62269;47.594;17.638;2022-12-10T03:38:39;32.85;;;26.55;;
62673;SDS011;62269;47.594;17.638;2022-12-10T03:39:27;33.22;;;26.27;;
62673;SDS011;62269;47.594;17.638;2022-12-10T03:40:14;31.08;;;25.98;;
62673;SDS011;62269;47.594;17.638;2022-12-10T03:41:00;34.78;;;27.48;;
62673;SDS011;62269;47.594;17.638;2022-12-10T03:41:47;37.97;;;28.40;;
62673;SDS011;62269;47.594;17.638;2022-12-10T03:42:35;35.63;;;27.48;;
62673;SDS011;62269;47.594;17.638;2022-12-10T03:43:22;36.20;;;27.98;;
62673;SDS011;62269;47.594;17.638;2022-12-10T03:44:09;34.70;;;27.37;;
62673;SDS011;62269;47.594;17.638;2022-12-10T03:44:56;36.03;;;28.75;;
62673;SDS011;62269;47.594;17.638;2022-12-10T03:45:43;36.38;;;28.60;;
62673;SDS011;62269;47.594;17.638;2022-12-10T03:46:30;34.90;;;27.87;;
62673;SDS011;62269;47.594;17.638;2022-12-10T03:47:17;33.88;;;27.92;;
62673;SDS011;62269;47.594;17.638;2022-12-10T03:48:05;33.50;;;27.27;;
62673;SDS011;62269;47.594;17.638;2022-12-10T03:48:53;34.13;;;27.27;;
62673;SDS011;62269;47.594;17.638;2022-12-10T03:49:40;35.40;;;28.33;;
62673;SDS011;62269;47.594;17.638;2022-12-10T03:50:28;34.05;;;27.85;;
62673;SDS011;62269;47.594;17.638;2022-12-10T03:51:15;33.92;;;28.05;;
62673;SDS011;62269;47.594;17.638;2022-12-10T03:52:02;34.60;;;27.50;;
62673;SDS011;62269;47.594;17.638;2022-12-10T03:52:49;33.42;;;27.70;;
62673;SDS011;62269;47.594;17.638;2022-12-10T03:53:36;37.03;;;28.65;;
62673;SDS011;62269;47.594;17.638;2022-12-10T03:54:23;33.42;;;27.37;;
62673;SDS011;62269;47.594;17.638;2022-12-10T03:55:09;32.60;;;27.05;;
62673;SDS011;62269;47.594;17.638;2022-12-10T03:55:56;35.55;;;27.05;;
62673;SDS011;62269;47.594;17.638;2022-12-10T03:56:43;35.80;;;28.33;;
62673;SDS011;62269;47.594;17.638;2022-12-10T03:57:30;33.83;;;27.55;;
62673;SDS011;62269;47.594;17.638;2022-12-10T03:58:17;33.50;;;27.48;;
62673;SDS011;62269;47.594;17.638;2022-12-10T03:59:05;31.77;;;27.05;;
62673;SDS011;62269;47.594;17.638;2022-12-10T03:59:52;35.90;;;28.12;;
62673;SDS011;62269;47.594;17.638;2022-12-10T04:00:39;35.58;;;28.17;;
62673;SDS011;62269;47.594;17.638;2022-12-10T04:01:27;34.83;;;27.95;;
62673;SDS011;62269;47.594;17.638;2022-12-10T04:02:14;32.90;;;25.88;;
62673;SDS011;62269;47.594;17.638;2022-12-10T04:03:01;32.15;;;26.20;;
62673;SDS011;62269;47.594;17.638;2022-12-10T04:03:47;33.78;;;28.00;;
62673;SDS011;62269;47.594;17.638;2022-12-10T04:04:34;32.85;;;26.65;;
62673;SDS011;62269;47.594;17.638;2022-12-10T04:05:21;34.33;;;27.23;;
62673;SDS011;62269;47.594;17.638;2022-12-10T04:06:10;31.37;;;26.92;;
62673;SDS011;62269;47.594;17.638;2022-12-10T04:07:00;32.80;;;25.90;;
62673;SDS011;62269;47.594;17.638;2022-12-10T04:07:46;33.65;;;26.40;;
62673;SDS011;62269;47.594;17.638;2022-12-10T04:08:33;34.30;;;26.62;;
62673;SDS011;62269;47.594;17.638;2022-12-10T04:09:21;31.75;;;27.20;;
62673;SDS011;62269;47.594;17.638;2022-12-10T04:10:08;32.10;;;27.00;;
62673;SDS011;62269;47.594;17.638;2022-12-10T04:11:01;32.42;;;27.65;;
62673;SDS011;62269;47.594;17.638;2022-12-10T04:11:49;29.85;;;25.70;;
62673;SDS011;62269;47.594;17.638;2022-12-10T04:12:36;31.10;;;26.17;;
62673;SDS011;62269;47.594;17.638;2022-12-10T04:13:22;30.27;;;25.75;;
62673;SDS011;62269;47.594;17.638;2022-12-10T04:14:33;29.83;;;25.77;;
62673;SDS011;62269;47.594;17.638;2022-12-10T04:15:39;30.23;;;24.40;;
62673;SDS011;62269;47.594;17.638;2022-12-10T04:16:44;34.13;;;24.98;;
62673;SDS011;62269;47.594;17.638;2022-12-10T04:17:32;28.70;;;24.25;;
62673;SDS011;62269;47.594;17.638;2022-12-10T04:18:20;39.22;;;25.15;;
62673;SDS011;62269;47.594;17.638;2022-12-10T04:19:07;28.90;;;24.00;;
62673;SDS011;62269;47.594;17.638;2022-12-10T04:19:55;28.98;;;23.45;;
62673;SDS011;62269;47.594;17.638;2022-12-10T04:20:42;29.55;;;25.12;;
62673;SDS011;62269;47.594;17.638;2022-12-10T04:21:48;30.20;;;24.77;;
62673;SDS011;62269;47.594;17.638;2022-12-10T04:22:54;28.80;;;24.60;;
62673;SDS011;62269;47.594;17.638;2022-12-10T04:23:59;30.65;;;23.40;;
62673;SDS011;62269;47.594;17.638;2022-12-10T04:25:05;28.52;;;24.83;;
62673;SDS011;62269;47.594;17.638;2022-12-10T04:26:12;28.48;;;23.48;;
62673;SDS011;62269;47.594;17.638;2022-12-10T04:27:21;28.10;;;23.77;;
62673;SDS011;62269;47.594;17.638;2022-12-10T04:28:10;31.40;;;25.37;;
62673;SDS011;62269;47.594;17.638;2022-12-10T04:28:57;26.90;;;23.10;;
62673;SDS011;62269;47.594;17.638;2022-12-10T04:29:44;29.98;;;25.10;;
62673;SDS011;62269;47.594;17.638;2022-12-10T04:30:31;27.52;;;24.52;;
62673;SDS011;62269;47.594;17.638;2022-12-10T04:31:18;29.45;;;25.17;;
62673;SDS011;62269;47.594;17.638;2022-12-10T04:32:05;27.05;;;23.50;;
62673;SDS011;62269;47.594;17.638;2022-12-10T04:32:52;27.37;;;23.27;;
62673;SDS011;62269;47.594;17.638;2022-12-10T04:33:39;27.37;;;22.50;;
62673;SDS011;62269;47.594;17.638;2022-12-10T04:34:26;28.38;;;24.05;;
62673;SDS011;62269;47.594;17.638;2022-12-10T04:35:12;27.45;;;23.90;;
62673;SDS011;62269;47.594;17.638;2022-12-10T04:35:59;29.70;;;23.67;;
62673;SDS011;62269;47.594;17.638;2022-12-10T04:36:47;29.75;;;23.95;;
62673;SDS011;62269;47.594;17.638;2022-12-10T04:37:34;27.42;;;23.05;;
62673;SDS011;62269;47.594;17.638;2022-12-10T04:38:21;29.10;;;24.08;;
62673;SDS011;62269;47.594;17.638;2022-12-10T04:39:08;28.45;;;23.55;;
62673;SDS011;62269;47.594;17.638;2022-12-10T04:39:55;28.00;;;23.70;;
62673;SDS011;62269;47.594;17.638;2022-12-10T04:40:41;29.63;;;23.60;;
62673;SDS011;62269;47.594;17.638;2022-12-10T04:41:28;27.70;;;23.30;;
62673;SDS011;62269;47.594;17.638;2022-12-10T04:42:16;26.95;;;23.55;;
62673;SDS011;62269;47.594;17.638;2022-12-10T04:43:03;27.10;;;22.73;;
62673;SDS011;62269;47.594;17.638;2022-12-10T04:43:50;26.15;;;22.58;;
62673;SDS011;62269;47.594;17.638;2022-12-10T04:44:37;27.92;;;22.85;;
62673;SDS011;62269;47.594;17.638;2022-12-10T04:45:24;28.95;;;24.87;;
62673;SDS011;62269;47.594;17.638;2022-12-10T04:46:11;26.52;;;23.70;;
62673;SDS011;62269;47.594;17.638;2022-12-10T04:46:58;26.17;;;22.90;;
62673;SDS011;62269;47.594;17.638;2022-12-10T04:47:45;27.10;;;22.77;;
62673;SDS011;62269;47.594;17.638;2022-12-10T04:48:32;27.48;;;23.52;;
62673;SDS011;62269;47.594;17.638;2022-12-10T04:49:18;26.48;;;22.15;;
62673;SDS011;62269;47.594;17.638;2022-12-10T04:50:05;27.10;;;22.87;;
62673;SDS011;62269;47.594;17.638;2022-12-10T04:50:53;26.20;;;23.30;;
62673;SDS011;62269;47.594;17.638;2022-12-10T04:51:40;26.52;;;22.90;;
62673;SDS011;62269;47.594;17.638;2022-12-10T04:52:27;25.35;;;22.65;;
62673;SDS011;62269;47.594;17.638;2022-12-10T04:53:14;25.73;;;22.50;;
62673;SDS011;62269;47.594;17.638;2022-12-10T04:54:00;25.80;;;22.58;;
62673;SDS011;62269;47.594;17.638;2022-12-10T04:54:47;25.85;;;22.55;;
62673;SDS011;62269;47.594;17.638;2022-12-10T04:55:34;25.45;;;22.65;;
62673;SDS011;62269;47.594;17.638;2022-12-10T04:56:21;27.37;;;22.80;;
62673;SDS011;62269;47.594;17.638;2022-12-10T04:57:08;26.15;;;23.27;;
62673;SDS011;62269;47.594;17.638;2022-12-10T04:57:55;25.42;;;22.40;;
62673;SDS011;62269;47.594;17.638;2022-12-10T04:58:43;26.55;;;21.33;;
62673;SDS011;62269;47.594;17.638;2022-12-10T04:59:30;27.27;;;23.12;;
62673;SDS011;62269;47.594;17.638;2022-12-10T05:00:17;25.55;;;22.30;;
62673;SDS011;62269;47.594;17.638;2022-12-10T05:01:05;28.55;;;24.15;;
62673;SDS011;62269;47.594;17.638;2022-12-10T05:01:53;24.52;;;21.95;;
62673;SDS011;62269;47.594;17.638;2022-12-10T05:02:40;26.60;;;23.40;;
62673;SDS011;62269;47.594;17.638;2022-12-10T05:03:27;25.75;;;22.62;;
62673;SDS011;62269;47.594;17.638;2022-12-10T05:04:14;26.65;;;23.75;;
62673;SDS011;62269;47.594;17.638;2022-12-10T05:05:02;30.58;;;23.95;;
62673;SDS011;62269;47.594;17.638;2022-12-10T05:05:49;25.83;;;22.95;;
62673;SDS011;62269;47.594;17.638;2022-12-10T05:06:36;27.52;;;23.15;;